createdAt,value
2022-09-21T00:01:08.266Z,187.03
2022-09-21T00:03:35.968Z,176.30
2022-09-21T00:06:05.819Z,185.90
2022-09-21T00:08:33.373Z,187.20
2022-09-21T00:11:01.162Z,187.43
2022-09-21T00:13:29.153Z,175.13
2022-09-21T00:15:56.825Z,187.13
2022-09-21T00:18:24.820Z,178.57
2022-09-21T00:20:52.799Z,181.67
2022-09-21T00:23:22.019Z,177.37
2022-09-21T00:25:49.510Z,178.97
2022-09-21T00:28:17.189Z,186.47
2022-09-21T00:30:44.699Z,180.23
2022-09-21T00:33:12.206Z,189.00
2022-09-21T00:35:40.199Z,184.50
2022-09-21T00:38:07.730Z,176.57
2022-09-21T00:40:36.600Z,176.23
2022-09-21T00:43:14.979Z,190.27
2022-09-21T00:45:42.998Z,186.53
2022-09-21T00:48:55.114Z,188.97
2022-09-21T00:51:22.875Z,180.47
2022-09-21T00:53:54.055Z,173.17
2022-09-21T00:56:21.583Z,185.77
2022-09-21T00:58:51.563Z,188.37
2022-09-21T01:01:19.274Z,180.33
2022-09-21T01:03:47.426Z,193.10
2022-09-21T01:06:18.162Z,191.53
2022-09-21T01:08:47.846Z,194.20
2022-09-21T01:11:28.973Z,194.10
2022-09-21T01:14:13.391Z,192.37
2022-09-21T01:16:46.193Z,191.90
2022-09-21T01:19:28.080Z,190.50
2022-09-21T01:22:03.942Z,186.50
2022-09-21T01:24:45.078Z,191.37
2022-09-21T01:27:36.596Z,193.03
2022-09-21T01:30:07.089Z,192.87
2022-09-21T01:32:38.664Z,189.40
2022-09-21T01:35:10.126Z,185.70
2022-09-21T01:37:40.180Z,198.70
2022-09-21T01:40:11.069Z,172.70
2022-09-21T01:42:40.271Z,182.03
2022-09-21T01:45:10.651Z,184.17
2022-09-21T01:47:38.863Z,191.70
2022-09-21T01:50:09.590Z,173.00
2022-09-21T01:52:39.081Z,182.93
2022-09-21T01:55:10.329Z,193.60
2022-09-21T01:57:43.235Z,186.40
2022-09-21T02:00:13.496Z,209.87
2022-09-21T02:02:44.798Z,187.23
2022-09-21T02:05:13.530Z,192.77
2022-09-21T02:07:41.074Z,186.83
2022-09-21T02:10:09.779Z,192.47
2022-09-21T02:12:38.463Z,190.07
2022-09-21T02:15:06.732Z,187.23
2022-09-21T02:17:40.062Z,194.60
2022-09-21T02:20:17.492Z,188.73
2022-09-21T02:22:54.822Z,192.47
2022-09-21T02:25:26.555Z,191.77
2022-09-21T02:27:57.468Z,193.50
2022-09-21T02:30:26.152Z,193.47
2022-09-21T02:33:00.356Z,195.33
2022-09-21T02:35:33.076Z,200.27
2022-09-21T02:38:08.174Z,192.93
2022-09-21T02:40:38.832Z,192.60
2022-09-21T02:43:10.296Z,191.93
2022-09-21T02:45:42.892Z,186.80
2022-09-21T02:48:14.512Z,194.57
2022-09-21T02:50:45.407Z,195.87
2022-09-21T02:53:14.666Z,188.30
2022-09-21T02:55:42.520Z,189.37
2022-09-21T02:58:11.429Z,187.30
2022-09-21T03:00:39.218Z,192.27
2022-09-21T03:03:18.095Z,196.90
2022-09-21T03:05:46.672Z,192.10
2022-09-21T03:08:14.187Z,198.43
2022-09-21T03:10:41.720Z,197.90
2022-09-21T03:13:10.034Z,195.30
2022-09-21T03:15:37.786Z,193.07
2022-09-21T03:18:05.962Z,190.33
2022-09-21T03:20:35.117Z,199.00
2022-09-21T03:23:02.687Z,193.47
2022-09-21T03:25:30.903Z,197.20
2022-09-21T03:27:59.067Z,200.60
2022-09-21T03:30:28.081Z,199.00
2022-09-21T03:32:56.202Z,180.17
2022-09-21T03:35:25.277Z,201.07
2022-09-21T03:37:54.955Z,191.80
2022-09-21T03:40:23.116Z,200.03
2022-09-21T03:42:50.660Z,199.43
2022-09-21T03:45:18.436Z,201.73
2022-09-21T03:47:46.511Z,199.60
2022-09-21T03:50:14.105Z,197.17
2022-09-21T03:52:41.983Z,200.10
2022-09-21T03:55:11.095Z,196.27
2022-09-21T03:57:39.166Z,196.90
2022-09-21T04:00:09.239Z,196.57
2022-09-21T04:02:37.059Z,208.73
2022-09-21T04:05:06.753Z,191.47
2022-09-21T04:07:35.710Z,197.87
2022-09-21T04:10:03.568Z,193.57
2022-09-21T04:12:32.823Z,195.73
2022-09-21T04:15:00.317Z,200.17
2022-09-21T04:17:27.858Z,198.80
2022-09-21T04:19:55.377Z,196.93
2022-09-21T04:22:24.775Z,196.90
2022-09-21T04:24:52.304Z,200.27
2022-09-21T04:27:19.824Z,199.73
2022-09-21T04:29:48.948Z,195.83
2022-09-21T04:32:16.434Z,196.57
2022-09-21T04:34:44.083Z,197.83
2022-09-21T04:37:11.814Z,190.73
2022-09-21T04:39:39.309Z,197.67
2022-09-21T04:42:07.314Z,178.73
2022-09-21T04:44:34.818Z,200.90
2022-09-21T04:47:03.771Z,198.00
2022-09-21T04:49:31.272Z,194.17
2022-09-21T04:51:58.791Z,195.53
2022-09-21T04:54:26.282Z,195.63
2022-09-21T04:56:53.832Z,189.60
2022-09-21T04:59:21.330Z,198.07
2022-09-21T05:01:48.880Z,198.50
2022-09-21T05:04:17.915Z,196.77
2022-09-21T05:06:45.402Z,197.33
2022-09-21T05:09:30.422Z,198.63
2022-09-21T05:11:57.928Z,200.27
2022-09-21T05:14:25.502Z,195.27
2022-09-21T05:16:53.030Z,198.63
2022-09-21T05:19:22.718Z,190.20
2022-09-21T05:21:50.203Z,201.77
2022-09-21T05:24:17.712Z,200.03
2022-09-21T05:26:45.202Z,195.70
2022-09-21T05:29:13.331Z,199.53
2022-09-21T05:31:44.709Z,204.60
2022-09-21T05:34:39.799Z,193.50
2022-09-21T05:37:11.648Z,200.50
2022-09-21T05:44:35.115Z,173.75
2022-09-21T05:47:05.726Z,170.77
2022-09-21T05:49:45.655Z,171.67
2022-09-21T05:52:19.024Z,160.97
2022-09-21T05:54:54.850Z,170.67
2022-09-21T05:57:31.090Z,169.07
2022-09-21T06:00:05.266Z,171.17
2022-09-21T06:02:54.898Z,174.27
2022-09-21T06:05:24.700Z,159.10
2022-09-21T06:07:52.234Z,169.93
2022-09-21T06:10:20.034Z,155.87
2022-09-21T06:12:47.652Z,164.87
2022-09-21T06:15:16.421Z,168.77
2022-09-21T06:17:44.383Z,163.80
2022-09-21T06:20:11.906Z,163.60
2022-09-21T06:22:40.772Z,167.80
2022-09-21T06:25:08.928Z,148.63
2022-09-21T06:27:36.444Z,164.57
2022-09-21T06:30:04.281Z,156.57
2022-09-21T06:32:32.079Z,145.97
2022-09-21T06:34:59.579Z,152.97
2022-09-21T06:37:27.094Z,151.70
2022-09-21T06:39:55.949Z,151.97
2022-09-21T06:42:23.484Z,145.00
2022-09-21T06:44:50.980Z,156.67
2022-09-21T06:47:18.507Z,151.43
2022-09-21T06:49:45.998Z,154.13
2022-09-21T06:52:13.507Z,148.07
2022-09-21T06:54:42.297Z,142.57
2022-09-21T06:57:11.152Z,143.70
2022-09-21T06:59:38.678Z,140.90
2022-09-21T07:02:07.043Z,141.23
2022-09-21T07:04:34.643Z,148.23
2022-09-21T07:07:04.488Z,137.13
2022-09-21T07:12:21.882Z,143.07
2022-09-21T07:14:49.723Z,140.97
2022-09-21T07:17:17.344Z,141.13
2022-09-21T07:20:39.258Z,143.73
2022-09-21T07:23:11.452Z,148.47
2022-09-21T07:25:39.758Z,145.47
2022-09-21T07:28:07.286Z,144.97
2022-09-21T07:30:34.810Z,146.40
2022-09-21T07:33:02.348Z,142.03
2022-09-21T07:35:29.960Z,145.67
2022-09-21T07:38:00.211Z,144.50
2022-09-21T07:40:28.488Z,146.27
2022-09-21T07:42:59.373Z,143.37
2022-09-21T07:45:27.232Z,144.23
2022-09-21T07:47:56.500Z,141.27
2022-09-21T07:50:24.522Z,142.53
2022-09-21T07:52:52.036Z,145.43
2022-09-21T07:55:20.933Z,140.63
2022-09-21T07:58:07.927Z,143.37
2022-09-21T08:00:35.632Z,143.30
2022-09-21T08:03:03.347Z,134.23
2022-09-21T08:05:30.902Z,143.37
2022-09-21T08:07:58.670Z,135.93
2022-09-21T08:10:29.899Z,133.97
2022-09-21T08:12:57.604Z,145.07
2022-09-21T08:15:47.350Z,137.93
2022-09-21T08:18:12.779Z,146.10
2022-09-21T08:20:40.296Z,137.63
2022-09-21T08:23:07.920Z,146.23
2022-09-21T08:25:36.802Z,150.13
2022-09-21T08:28:09.414Z,148.17
2022-09-21T08:30:37.460Z,148.83
2022-09-21T08:33:06.907Z,144.97
2022-09-21T08:35:34.646Z,148.23
2022-09-21T08:38:02.168Z,139.40
2022-09-21T08:40:30.307Z,144.10
2022-09-21T08:43:01.790Z,143.23
2022-09-21T08:45:33.760Z,141.67
2022-09-21T08:48:03.875Z,147.00
2022-09-21T08:50:35.576Z,136.37
2022-09-21T08:53:06.481Z,147.90
2022-09-21T08:55:34.372Z,145.40
2022-09-21T08:58:03.260Z,147.90
2022-09-21T09:00:34.485Z,147.37
2022-09-21T09:03:24.234Z,143.43
2022-09-21T09:05:56.631Z,143.57
2022-09-21T09:08:47.260Z,143.17
2022-09-21T09:11:24.234Z,147.17
2022-09-21T09:14:05.265Z,148.27
2022-09-21T09:16:38.618Z,149.83
2022-09-21T09:19:13.104Z,136.57
2022-09-21T09:21:41.946Z,154.67
2022-09-21T09:24:12.533Z,148.20
2022-09-21T09:26:44.955Z,141.03
2022-09-21T09:29:19.408Z,140.60
2022-09-21T09:31:47.460Z,152.20
2022-09-21T09:34:17.510Z,153.63
2022-09-21T09:36:58.222Z,152.17
2022-09-21T09:39:26.738Z,152.73
2022-09-21T09:42:17.643Z,154.67
2022-09-21T09:45:11.706Z,151.97
2022-09-21T09:47:48.434Z,155.87
2022-09-21T09:50:21.680Z,149.13
2022-09-21T09:52:50.759Z,133.93
2022-09-21T09:55:20.164Z,146.60
2022-09-21T09:57:48.789Z,150.83
2022-09-21T10:00:19.796Z,147.60
2022-09-21T10:02:49.377Z,152.93
2022-09-21T10:05:22.743Z,158.57
2022-09-21T10:07:50.708Z,153.43
2022-09-21T10:10:30.946Z,155.97
2022-09-21T10:13:04.249Z,154.53
2022-09-21T10:15:33.359Z,157.37
2022-09-21T10:18:16.628Z,155.73
2022-09-21T10:20:55.110Z,158.33
2022-09-21T10:23:23.668Z,162.93
2022-09-21T10:25:56.112Z,159.43
2022-09-21T10:28:24.377Z,158.43
2022-09-21T10:31:09.965Z,156.27
2022-09-21T10:33:47.763Z,160.57
2022-09-21T10:36:27.874Z,159.03
2022-09-21T10:38:55.663Z,161.00
2022-09-21T10:41:23.478Z,160.63
2022-09-21T10:43:51.727Z,160.57
2022-09-21T10:46:33.864Z,160.67
2022-09-21T10:49:02.023Z,161.27
2022-09-21T10:51:30.974Z,163.80
2022-09-21T10:53:58.646Z,156.20
2022-09-21T10:56:26.863Z,164.07
2022-09-21T10:59:21.174Z,161.67
2022-09-21T11:01:51.452Z,162.30
2022-09-21T11:04:25.018Z,162.40
2022-09-21T11:06:55.987Z,161.43
2022-09-21T11:09:26.335Z,169.33
2022-09-21T11:11:58.092Z,170.30
2022-09-21T11:14:42.482Z,162.33
2022-09-21T11:17:14.893Z,165.23
2022-09-21T11:19:45.459Z,168.07
2022-09-21T11:22:16.538Z,174.90
2022-09-21T11:24:49.428Z,172.07
2022-09-21T11:27:20.759Z,166.33
2022-09-21T11:29:56.524Z,163.70
2022-09-21T11:32:38.192Z,169.23
2022-09-21T11:35:35.008Z,170.87
2022-09-21T11:38:06.646Z,166.77
2022-09-21T11:40:43.171Z,162.40
2022-09-21T11:43:23.573Z,168.00
2022-09-21T11:45:58.866Z,174.90
2022-09-21T11:48:37.899Z,167.37
2022-09-21T11:51:14.937Z,167.30
2022-09-21T11:53:53.575Z,171.43
2022-09-21T11:56:43.655Z,175.33
2022-09-21T11:59:29.156Z,175.20
2022-09-21T12:02:17.445Z,169.80
2022-09-21T12:04:50.216Z,164.37
2022-09-21T12:07:31.203Z,179.20
2022-09-21T12:10:11.046Z,175.30
2022-09-21T12:12:42.495Z,171.17
2022-09-21T12:15:13.993Z,168.60
2022-09-21T12:17:49.462Z,173.73
2022-09-21T12:20:36.068Z,170.10
2022-09-21T12:23:08.948Z,168.20
2022-09-21T12:25:40.786Z,173.23
2022-09-21T12:28:13.490Z,166.67
2022-09-21T12:30:44.235Z,180.73
2022-09-21T12:33:17.704Z,174.73
2022-09-21T12:35:48.861Z,179.60
2022-09-21T12:38:24.507Z,182.47
2022-09-21T12:40:54.717Z,172.03
2022-09-21T12:43:29.634Z,177.23
2022-09-21T12:46:00.026Z,172.53
2022-09-21T12:48:33.080Z,173.23
2022-09-21T12:51:06.716Z,170.83
2022-09-21T12:53:37.614Z,176.63
2022-09-21T12:56:10.014Z,166.67
2022-09-21T12:58:58.584Z,170.87
2022-09-21T13:01:32.236Z,181.20
2022-09-21T13:04:13.299Z,168.30
2022-09-21T13:07:17.010Z,170.17
2022-09-21T13:09:45.995Z,182.93
2022-09-21T13:12:17.874Z,175.73
2022-09-21T13:14:47.686Z,176.63
2022-09-21T13:17:22.178Z,185.97
2022-09-21T13:19:58.562Z,177.30
2022-09-21T13:22:28.525Z,171.57
2022-09-21T13:25:02.944Z,174.77
2022-09-21T13:28:00.462Z,177.20
2022-09-21T13:30:42.484Z,184.70
2022-09-21T13:33:32.197Z,183.97
2022-09-21T13:36:19.879Z,186.90
2022-09-21T13:39:15.599Z,178.80
2022-09-21T13:42:02.349Z,181.00
2022-09-21T13:44:48.535Z,184.37
2022-09-21T13:47:29.267Z,184.83
2022-09-21T13:50:00.522Z,189.47
2022-09-21T13:52:40.240Z,194.10
2022-09-21T13:55:25.185Z,188.57
2022-09-21T13:57:56.071Z,190.90
2022-09-21T14:00:33.660Z,193.43
2022-09-21T14:03:04.599Z,184.13
2022-09-21T14:05:36.260Z,189.57
2022-09-21T14:08:06.727Z,188.63
2022-09-21T14:10:37.230Z,187.73
2022-09-21T14:13:10.400Z,185.27
2022-09-21T14:15:40.316Z,191.10
2022-09-21T14:18:47.484Z,194.83
2022-09-21T14:21:18.354Z,194.97
2022-09-21T14:24:20.958Z,191.27
2022-09-21T14:26:56.467Z,184.60
2022-09-21T14:29:26.742Z,180.83
2022-09-21T14:31:56.037Z,166.97
2022-09-21T14:34:27.067Z,179.33
2022-09-21T14:36:57.409Z,183.83
2022-09-21T14:39:27.467Z,191.17
2022-09-21T14:41:58.697Z,194.53
2022-09-21T14:44:29.868Z,192.83
2022-09-21T14:47:28.582Z,192.87
2022-09-21T14:50:26.399Z,192.33
2022-09-21T14:53:09.747Z,194.20
2022-09-21T14:55:51.630Z,194.50
2022-09-21T14:58:31.282Z,182.50
2022-09-21T15:01:21.025Z,185.63
2022-09-21T15:04:01.836Z,190.60
2022-09-21T15:06:51.876Z,192.93
2022-09-21T15:10:03.616Z,194.60
2022-09-21T15:12:38.132Z,191.03
2022-09-21T15:15:22.891Z,195.10
2022-09-21T15:17:59.287Z,190.73
2022-09-21T15:20:29.400Z,193.50
2022-09-21T15:22:57.323Z,193.80
2022-09-21T15:25:26.267Z,197.70
2022-09-21T15:27:53.770Z,200.37
2022-09-21T15:30:24.294Z,201.53
2022-09-21T15:32:54.060Z,195.60
2022-09-21T15:35:23.136Z,201.83
2022-09-21T15:37:52.035Z,198.50
2022-09-21T15:40:22.761Z,196.20
2022-09-21T15:43:00.798Z,196.70
2022-09-21T15:45:33.827Z,195.00
2022-09-21T15:48:01.996Z,196.90
2022-09-21T15:50:30.296Z,196.87
2022-09-21T15:53:01.353Z,191.33
2022-09-21T15:55:30.233Z,194.27
2022-09-21T15:57:58.688Z,196.87
2022-09-21T16:00:28.292Z,199.73
2022-09-21T16:03:06.240Z,194.60
2022-09-21T16:05:45.400Z,195.00
2022-09-21T16:08:30.151Z,191.53
2022-09-21T16:11:19.760Z,191.00
2022-09-21T16:14:05.438Z,183.30
2022-09-21T16:16:33.246Z,172.13
2022-09-21T16:19:02.226Z,191.60
2022-09-21T16:21:32.797Z,194.67
2022-09-21T16:24:12.280Z,189.47
2022-09-21T16:26:42.966Z,186.33
2022-09-21T16:29:23.419Z,194.93
2022-09-21T16:31:51.421Z,189.20
2022-09-21T16:34:32.935Z,181.97
2022-09-21T16:37:02.199Z,190.77
2022-09-21T16:39:29.696Z,195.27
2022-09-21T16:41:59.943Z,188.13
2022-09-21T16:44:31.400Z,191.87
2022-09-21T16:47:00.436Z,189.67
2022-09-21T16:49:32.012Z,192.03
2022-09-21T16:51:59.838Z,193.37
2022-09-21T16:54:27.711Z,192.07
2022-09-21T16:56:57.829Z,180.50
2022-09-21T16:59:25.770Z,187.60
2022-09-21T17:01:56.555Z,187.23
2022-09-21T17:04:25.943Z,188.53
2022-09-21T17:06:55.403Z,188.07
2022-09-21T17:09:29.536Z,188.73
2022-09-21T17:11:59.224Z,183.70
2022-09-21T17:14:26.790Z,182.37
2022-09-21T17:16:58.357Z,193.37
2022-09-21T17:19:26.397Z,182.93
2022-09-21T17:21:55.344Z,191.50
2022-09-21T17:24:39.233Z,192.93
2022-09-21T17:27:10.536Z,191.57
2022-09-21T17:29:40.114Z,189.93
2022-09-21T17:32:11.253Z,184.73
2022-09-21T17:34:38.772Z,194.07
2022-09-21T17:37:09.749Z,187.27
2022-09-21T17:39:37.303Z,193.80
2022-09-21T17:42:13.367Z,181.73
2022-09-21T17:44:53.015Z,185.93
2022-09-21T17:47:22.023Z,184.63
2022-09-21T17:49:50.027Z,187.80
2022-09-21T17:52:37.912Z,185.70
2022-09-21T17:55:08.304Z,187.93
2022-09-21T17:57:47.430Z,188.83
2022-09-21T18:00:20.591Z,184.77
2022-09-21T18:02:48.685Z,176.90
2022-09-21T18:05:22.728Z,189.00
2022-09-21T18:07:52.364Z,191.33
2022-09-21T18:10:21.235Z,185.33
2022-09-21T18:13:11.735Z,182.43
2022-09-21T18:15:48.876Z,188.53
2022-09-21T18:18:20.666Z,189.27
2022-09-21T18:20:57.711Z,190.73
2022-09-21T18:23:36.028Z,181.13
2022-09-21T18:26:04.379Z,185.33
2022-09-21T18:28:40.179Z,184.87
2022-09-21T18:31:24.260Z,182.93
2022-09-21T18:33:57.314Z,186.47
2022-09-21T18:36:28.875Z,189.17
2022-09-21T18:39:06.762Z,181.93
2022-09-21T18:41:39.151Z,188.17
2022-09-21T18:44:14.199Z,183.80
2022-09-21T18:46:51.483Z,183.80
2022-09-21T18:49:29.325Z,182.47
2022-09-21T18:52:01.482Z,182.30
2022-09-21T18:54:30.812Z,185.60
2022-09-21T18:56:59.128Z,181.73
2022-09-21T18:59:31.725Z,180.93
2022-09-21T19:02:00.299Z,182.40
2022-09-21T19:04:29.016Z,183.57
2022-09-21T19:07:01.608Z,181.67
2022-09-21T19:09:38.023Z,184.33
2022-09-21T19:12:14.412Z,181.20
2022-09-21T19:14:48.690Z,180.50
2022-09-21T19:17:25.502Z,183.43
2022-09-21T19:20:04.488Z,182.00
2022-09-21T19:22:38.757Z,183.50
2022-09-21T19:25:12.886Z,184.50
2022-09-21T19:27:44.498Z,183.57
2022-09-21T19:30:13.522Z,176.33
2022-09-21T19:32:45.317Z,179.67
2022-09-21T19:35:23.777Z,184.83
2022-09-21T19:37:52.855Z,184.20
2022-09-21T19:40:23.791Z,183.67
2022-09-21T19:43:10.062Z,190.03
2022-09-21T19:45:47.294Z,188.87
2022-09-21T19:48:16.085Z,182.53
2022-09-21T19:50:47.590Z,187.50
2022-09-21T19:53:33.541Z,182.00
2022-09-21T19:56:20.558Z,182.37
2022-09-21T19:59:05.867Z,183.57
2022-09-21T20:01:36.641Z,184.07
2022-09-21T20:04:05.144Z,180.17
2022-09-21T20:06:36.199Z,180.97
2022-09-21T20:09:09.847Z,185.43
2022-09-21T20:11:44.543Z,190.27
2022-09-21T20:14:21.452Z,190.57
2022-09-21T20:16:50.932Z,184.27
2022-09-21T20:19:38.895Z,185.13
2022-09-21T20:22:12.749Z,186.37
2022-09-21T20:24:45.479Z,190.37
2022-09-21T20:27:30.239Z,179.37
2022-09-21T20:29:57.716Z,188.80
2022-09-21T20:32:25.315Z,186.50
2022-09-21T20:34:52.799Z,176.90
2022-09-21T20:37:21.027Z,178.30
2022-09-21T20:39:48.547Z,177.53
2022-09-21T20:42:20.231Z,186.40
2022-09-21T20:44:47.730Z,176.13
2022-09-21T20:47:15.283Z,193.00
2022-09-21T20:49:42.799Z,184.67
2022-09-21T20:52:11.192Z,186.20
2022-09-21T20:54:38.689Z,188.23
2022-09-21T20:57:06.295Z,186.10
2022-09-21T20:59:35.155Z,187.00
2022-09-21T21:02:02.764Z,188.03
2022-09-21T21:04:30.351Z,177.60
2022-09-21T21:06:57.880Z,173.80
2022-09-21T21:09:25.406Z,179.03
2022-09-21T21:11:53.112Z,177.80
2022-09-21T21:14:20.704Z,170.03
2022-09-21T21:16:49.588Z,179.43
2022-09-21T21:19:17.503Z,174.43
2022-09-21T21:21:45.412Z,179.13
2022-09-21T21:24:31.128Z,178.33
2022-09-21T21:27:02.283Z,178.23
2022-09-21T21:29:30.420Z,178.90
2022-09-21T21:31:59.940Z,178.13
2022-09-21T21:34:27.543Z,179.50
2022-09-21T21:36:55.174Z,179.07
2022-09-21T21:39:22.691Z,174.53
2022-09-21T21:41:50.251Z,173.47
2022-09-21T21:44:17.772Z,178.53
2022-09-21T21:46:45.256Z,175.00
2022-09-21T21:49:14.219Z,180.13
2022-09-21T21:51:41.771Z,176.97
2022-09-21T21:54:09.423Z,180.73
2022-09-21T21:56:36.960Z,185.63
2022-09-21T21:59:04.910Z,175.70
2022-09-21T22:01:32.464Z,176.83
2022-09-21T22:04:02.138Z,181.43
2022-09-21T22:06:32.931Z,180.87
2022-09-21T22:09:00.663Z,185.17
2022-09-21T22:11:28.997Z,181.70
2022-09-21T22:13:57.766Z,184.63
2022-09-21T22:16:27.576Z,188.03
2022-09-21T22:18:56.071Z,181.90
2022-09-21T22:21:25.083Z,183.43
2022-09-21T22:23:54.831Z,181.80
2022-09-21T22:26:22.836Z,183.27
2022-09-21T22:28:52.122Z,183.60
2022-09-21T22:31:21.254Z,188.53
2022-09-21T22:33:49.804Z,188.10
2022-09-21T22:36:19.480Z,185.47
2022-09-21T22:38:47.614Z,180.23
2022-09-21T22:41:18.225Z,182.47
2022-09-21T22:43:46.316Z,187.97
2022-09-21T22:46:14.292Z,183.63
2022-09-21T22:48:41.836Z,185.10
2022-09-21T22:51:10.887Z,181.53
2022-09-21T22:53:38.408Z,183.63
2022-09-21T22:56:07.762Z,184.00
2022-09-21T22:58:38.420Z,181.63
2022-09-21T23:01:07.206Z,183.17
2022-09-21T23:03:35.433Z,186.27
2022-09-21T23:06:03.192Z,182.00
2022-09-21T23:08:31.262Z,186.77
2022-09-21T23:11:08.284Z,186.37
2022-09-21T23:13:37.187Z,183.07
2022-09-21T23:16:05.986Z,180.87
2022-09-21T23:18:34.178Z,188.23
2022-09-21T23:21:03.823Z,190.70
2022-09-21T23:23:31.331Z,189.03
2022-09-21T23:26:03.397Z,183.60
2022-09-21T23:28:30.922Z,185.03
2022-09-21T23:32:20.679Z,190.10
2022-09-21T23:34:48.337Z,187.27
2022-09-21T23:37:15.923Z,185.77
2022-09-21T23:39:43.440Z,186.67
2022-09-21T23:42:10.986Z,188.60
2022-09-21T23:44:38.490Z,191.37
2022-09-21T23:47:06.174Z,186.10
2022-09-21T23:49:35.113Z,196.33
2022-09-21T23:52:03.327Z,188.27
2022-09-21T23:54:30.846Z,191.03
2022-09-21T23:56:58.368Z,186.67
2022-09-21T23:59:25.875Z,187.37
